Time;durP1;ratioP1;P1;durP2;ratioP2;P2;SDS_P1;SDS_P2;PMS_P1;PMS_P2;Temp;Humidity;BMP_temperature;BMP_pressure;BME280_temperature;BME280_humidity;BME280_pressure;Samples;Min_cycle;Max_cycle;Signal;HPM_P1;HPM_P2
2021/10/18 00:02:24;;;;;;;9.07;6.55;;;;;;;;;;5027946;28;20452;-82
2021/10/18 00:04:50;;;;;;;7.30;6.60;;;;;;;;;;5013432;28;20194;-82
2021/10/18 00:07:16;;;;;;;9.45;7.05;;;;;;;;;;5012403;28;20184;-83
2021/10/18 00:09:42;;;;;;;9.18;7.10;;;;;;;;;;5020306;28;20207;-83
2021/10/18 00:12:08;;;;;;;6.90;6.25;;;;;;;;;;5019629;28;20187;-83
2021/10/18 00:14:34;;;;;;;8.23;7.43;;;;;;;;;;5014088;28;20185;-83
2021/10/18 00:17:00;;;;;;;7.78;6.95;;;;;;;;;;5033650;28;20186;-83
2021/10/18 00:19:27;;;;;;;8.40;6.78;;;;;;;;;;5022864;28;20280;-84
2021/10/18 00:21:53;;;;;;;7.32;6.50;;;;;;;;;;5021658;28;20210;-84
2021/10/18 00:24:19;;;;;;;10.45;7.50;;;;;;;;;;5019345;28;20186;-84
2021/10/18 00:26:45;;;;;;;7.50;6.72;;;;;;;;;;5019416;28;20230;-84
2021/10/18 00:29:11;;;;;;;8.82;7.40;;;;;;;;;;5022096;28;20175;-84
2021/10/18 00:31:37;;;;;;;8.17;6.90;;;;;;;;;;5023041;28;20242;-84
2021/10/18 00:34:03;;;;;;;7.33;6.70;;;;;;;;;;5023650;28;20434;-83
2021/10/18 00:36:29;;;;;;;7.15;6.45;;;;;;;;;;5021002;28;20470;-84
2021/10/18 00:38:55;;;;;;;7.55;6.80;;;;;;;;;;5025463;28;20201;-84
2021/10/18 00:41:21;;;;;;;9.20;7.07;;;;;;;;;;5042291;28;20186;-84
2021/10/18 00:43:49;;;;;;;9.98;7.63;;;;;;;;;;5020370;28;20439;-83
2021/10/18 00:46:20;;;;;;;7.68;6.63;;;;;;;;;;5015472;28;20273;-84
2021/10/18 00:48:46;;;;;;;7.50;6.75;;;;;;;;;;5018458;28;20242;-84
2021/10/18 00:51:12;;;;;;;8.77;7.03;;;;;;;;;;5023654;28;20201;-84
2021/10/18 00:53:39;;;;;;;6.72;6.05;;;;;;;;;;5028734;28;20225;-83
2021/10/18 00:56:05;;;;;;;6.50;5.85;;;;;;;;;;5039478;28;20202;-84
2021/10/18 00:58:31;;;;;;;9.68;6.85;;;;;;;;;;5027320;28;20189;-84
2021/10/18 01:00:57;;;;;;;8.77;6.75;;;;;;;;;;5021434;28;20187;-84
2021/10/18 01:03:23;;;;;;;8.10;6.53;;;;;;;;;;5023050;28;20167;-83
2021/10/18 01:05:49;;;;;;;7.05;6.32;;;;;;;;;;5029793;28;20209;-84
2021/10/18 01:08:15;;;;;;;7.00;6.28;;;;;;;;;;5021432;28;20189;-84
2021/10/18 01:10:41;;;;;;;12.95;7.55;;;;;;;;;;5019854;28;20183;-83
2021/10/18 01:13:08;;;;;;;7.90;6.85;;;;;;;;;;5023946;28;20246;-83
2021/10/18 01:15:34;;;;;;;7.75;6.30;;;;;;;;;;5021248;28;20214;-83
2021/10/18 01:18:00;;;;;;;6.75;6.10;;;;;;;;;;5024647;28;20228;-84
2021/10/18 01:20:32;;;;;;;7.05;6.20;;;;;;;;;;5029596;28;20320;-83
2021/10/18 01:22:58;;;;;;;6.10;5.25;;;;;;;;;;5020227;28;20734;-84
2021/10/18 01:25:25;;;;;;;6.53;5.90;;;;;;;;;;5019447;28;20187;-84
2021/10/18 01:27:51;;;;;;;6.95;5.80;;;;;;;;;;5024034;28;20191;-84
2021/10/18 01:30:17;;;;;;;6.35;5.80;;;;;;;;;;5020885;28;20198;-83
2021/10/18 01:32:44;;;;;;;6.47;5.85;;;;;;;;;;5024310;28;20204;-83
2021/10/18 01:35:10;;;;;;;8.95;6.07;;;;;;;;;;5023331;28;20301;-87
2021/10/18 01:37:37;;;;;;;9.25;6.18;;;;;;;;;;5019084;28;20190;-87
2021/10/18 01:40:06;;;;;;;6.90;5.80;;;;;;;;;;5021275;28;20230;-84
2021/10/18 01:42:33;;;;;;;7.03;6.20;;;;;;;;;;5009083;28;20183;-85
2021/10/18 01:44:59;;;;;;;5.93;5.30;;;;;;;;;;5017987;28;20229;-84
2021/10/18 01:47:27;;;;;;;7.63;6.53;;;;;;;;;;5015911;28;20225;-83
2021/10/18 01:49:53;;;;;;;7.70;6.03;;;;;;;;;;5019923;28;20455;-85
2021/10/18 01:52:19;;;;;;;6.90;5.40;;;;;;;;;;5022921;28;20655;-85
2021/10/18 01:54:46;;;;;;;12.15;6.38;;;;;;;;;;5017470;28;20222;-85
2021/10/18 01:57:12;;;;;;;8.27;6.13;;;;;;;;;;5022085;28;20185;-84
2021/10/18 01:59:38;;;;;;;11.73;6.43;;;;;;;;;;5028062;28;20182;-84
2021/10/18 02:02:04;;;;;;;8.35;6.70;;;;;;;;;;5020215;28;20779;-83
2021/10/18 02:04:30;;;;;;;7.70;6.63;;;;;;;;;;5023120;28;20211;-84
2021/10/18 02:06:57;;;;;;;6.65;5.60;;;;;;;;;;5023282;28;20186;-84
2021/10/18 02:09:23;;;;;;;7.07;5.75;;;;;;;;;;5023513;28;20189;-85
2021/10/18 02:11:49;;;;;;;7.25;6.47;;;;;;;;;;5021846;28;20274;-85
2021/10/18 02:14:15;;;;;;;9.20;5.57;;;;;;;;;;5020196;28;20175;-84
2021/10/18 02:16:41;;;;;;;7.10;6.07;;;;;;;;;;5022715;28;20210;-84
2021/10/18 02:19:07;;;;;;;6.15;5.55;;;;;;;;;;5018755;28;20210;-85
2021/10/18 02:21:34;;;;;;;6.10;5.50;;;;;;;;;;5021167;28;20183;-85
2021/10/18 02:24:00;;;;;;;6.18;5.10;;;;;;;;;;5023886;28;20179;-84
2021/10/18 02:26:26;;;;;;;6.53;5.73;;;;;;;;;;5019047;28;20197;-85
2021/10/18 02:28:52;;;;;;;6.57;5.97;;;;;;;;;;5030867;28;20419;-86
2021/10/18 02:31:18;;;;;;;6.68;6.05;;;;;;;;;;5028976;28;20183;-85
2021/10/18 02:33:44;;;;;;;8.15;5.60;;;;;;;;;;5017229;28;20214;-84
2021/10/18 02:36:10;;;;;;;7.68;5.65;;;;;;;;;;5023387;28;20229;-85
2021/10/18 02:38:38;;;;;;;7.10;5.93;;;;;;;;;;5012524;28;20167;-85
2021/10/18 02:41:04;;;;;;;9.65;6.03;;;;;;;;;;5034178;28;20201;-85
2021/10/18 02:43:30;;;;;;;8.18;5.95;;;;;;;;;;5018946;28;20183;-85
2021/10/18 02:45:56;;;;;;;7.75;5.80;;;;;;;;;;5008234;28;20227;-85
2021/10/18 02:48:22;;;;;;;6.13;5.63;;;;;;;;;;5015833;28;20302;-85
2021/10/18 02:50:48;;;;;;;7.50;5.18;;;;;;;;;;5021859;28;20201;-85
2021/10/18 02:53:14;;;;;;;6.63;5.93;;;;;;;;;;5015161;28;20682;-85
2021/10/18 02:55:40;;;;;;;6.88;5.45;;;;;;;;;;5022103;28;20212;-85
2021/10/18 02:58:06;;;;;;;8.57;6.25;;;;;;;;;;5018712;28;20183;-84
2021/10/18 03:00:32;;;;;;;6.45;5.50;;;;;;;;;;5022697;28;20203;-85
2021/10/18 03:02:58;;;;;;;7.32;6.22;;;;;;;;;;5022872;28;20183;-85
2021/10/18 03:05:24;;;;;;;7.10;5.55;;;;;;;;;;5027678;28;20186;-83
2021/10/18 03:07:52;;;;;;;6.43;5.30;;;;;;;;;;5017763;28;20632;-86
2021/10/18 03:10:19;;;;;;;7.10;5.65;;;;;;;;;;5016179;28;20187;-85
2021/10/18 03:12:45;;;;;;;6.47;5.60;;;;;;;;;;5022429;28;20194;-85
2021/10/18 03:15:11;;;;;;;6.25;5.65;;;;;;;;;;5012534;28;20786;-85
2021/10/18 03:17:37;;;;;;;6.55;5.70;;;;;;;;;;5027762;28;20225;-84
2021/10/18 03:20:04;;;;;;;6.35;5.75;;;;;;;;;;5034162;28;20591;-84
2021/10/18 03:22:30;;;;;;;8.95;6.03;;;;;;;;;;5022226;28;20254;-85
2021/10/18 03:24:56;;;;;;;7.38;5.10;;;;;;;;;;5022467;28;20194;-85
2021/10/18 03:27:22;;;;;;;5.85;5.35;;;;;;;;;;5023428;28;20246;-85
2021/10/18 03:29:48;;;;;;;6.45;5.68;;;;;;;;;;5017500;28;20230;-85
2021/10/18 03:32:14;;;;;;;7.35;5.65;;;;;;;;;;5018549;28;20656;-86
2021/10/18 03:34:40;;;;;;;9.48;5.10;;;;;;;;;;5021899;28;20187;-85
2021/10/18 03:37:06;;;;;;;6.05;5.45;;;;;;;;;;5021653;28;20197;-86
2021/10/18 03:39:33;;;;;;;5.50;4.77;;;;;;;;;;5022290;28;20209;-85
2021/10/18 03:41:59;;;;;;;8.43;5.80;;;;;;;;;;5017463;28;20434;-86
2021/10/18 03:44:25;;;;;;;6.63;5.53;;;;;;;;;;5017149;28;20244;-85
2021/10/18 03:46:51;;;;;;;7.63;5.20;;;;;;;;;;5021600;28;20276;-85
2021/10/18 03:49:17;;;;;;;5.97;4.90;;;;;;;;;;5017523;28;20179;-85
2021/10/18 03:51:43;;;;;;;5.85;5.25;;;;;;;;;;5017031;28;20301;-84
2021/10/18 03:54:09;;;;;;;5.70;5.20;;;;;;;;;;5023862;28;20205;-86
2021/10/18 03:56:35;;;;;;;6.45;5.28;;;;;;;;;;5021677;28;20214;-85
2021/10/18 03:59:01;;;;;;;5.78;5.28;;;;;;;;;;5022668;28;20317;-86
2021/10/18 04:01:27;;;;;;;5.90;5.40;;;;;;;;;;5020510;28;20178;-86
2021/10/18 04:03:53;;;;;;;7.35;5.25;;;;;;;;;;5022938;28;20211;-85
2021/10/18 04:06:19;;;;;;;5.35;4.85;;;;;;;;;;5024636;28;20190;-84
2021/10/18 04:08:48;;;;;;;5.85;4.80;;;;;;;;;;5030706;28;20249;-85
2021/10/18 04:11:14;;;;;;;5.43;4.93;;;;;;;;;;5026324;28;20654;-86
2021/10/18 04:13:41;;;;;;;6.75;4.97;;;;;;;;;;5025292;28;20189;-86
2021/10/18 04:16:07;;;;;;;5.63;5.10;;;;;;;;;;5025105;28;20208;-84
2021/10/18 04:18:32;;;;;;;5.20;4.80;;;;;;;;;;5025433;28;20257;-85
2021/10/18 04:20:59;;;;;;;6.10;5.50;;;;;;;;;;5020611;28;20186;-86
2021/10/18 04:23:26;;;;;;;5.82;5.28;;;;;;;;;;5022199;28;20417;-86
2021/10/18 04:25:52;;;;;;;6.72;5.15;;;;;;;;;;5033843;28;20302;-86
2021/10/18 04:28:18;;;;;;;5.13;4.47;;;;;;;;;;5031871;28;20215;-86
2021/10/18 04:30:44;;;;;;;6.35;4.70;;;;;;;;;;5023591;28;20210;-86
2021/10/18 04:33:10;;;;;;;6.15;4.90;;;;;;;;;;5023352;28;20180;-85
2021/10/18 04:35:36;;;;;;;7.72;5.55;;;;;;;;;;5020457;28;20209;-84
2021/10/18 04:38:02;;;;;;;8.25;5.63;;;;;;;;;;5025559;28;20203;-85
2021/10/18 04:40:28;;;;;;;6.32;5.32;;;;;;;;;;5024705;28;20213;-85
2021/10/18 04:42:54;;;;;;;5.70;5.20;;;;;;;;;;5020570;28;20187;-86
2021/10/18 04:45:20;;;;;;;5.43;4.65;;;;;;;;;;5024433;28;20230;-86
2021/10/18 04:47:48;;;;;;;5.88;5.10;;;;;;;;;;5029431;28;20199;-87
2021/10/18 04:50:14;;;;;;;8.15;5.35;;;;;;;;;;5021535;28;20182;-86
2021/10/18 04:52:40;;;;;;;5.63;5.13;;;;;;;;;;5020256;28;20186;-86
2021/10/18 04:55:06;;;;;;;5.95;4.82;;;;;;;;;;5024670;28;20225;-86
2021/10/18 04:57:32;;;;;;;7.32;4.82;;;;;;;;;;5014066;28;20268;-85
2021/10/18 04:59:58;;;;;;;5.60;5.10;;;;;;;;;;5021175;28;20182;-85
2021/10/18 05:02:24;;;;;;;7.53;5.60;;;;;;;;;;5022268;28;20178;-84
2021/10/18 05:04:50;;;;;;;7.55;4.90;;;;;;;;;;5016846;28;20202;-86
2021/10/18 05:07:16;;;;;;;6.50;5.88;;;;;;;;;;5023361;28;20190;-85
2021/10/18 05:09:42;;;;;;;6.28;5.68;;;;;;;;;;5020688;28;20551;-86
2021/10/18 05:12:08;;;;;;;6.65;5.45;;;;;;;;;;5025989;28;20170;-86
2021/10/18 05:14:34;;;;;;;8.85;5.50;;;;;;;;;;5026111;28;20184;-85
2021/10/18 05:17:00;;;;;;;6.13;5.47;;;;;;;;;;5024209;28;20182;-86
2021/10/18 05:19:26;;;;;;;8.30;5.95;;;;;;;;;;5019820;28;20182;-85
2021/10/18 05:21:52;;;;;;;6.25;5.65;;;;;;;;;;5026602;28;20265;-85
2021/10/18 05:24:18;;;;;;;6.53;5.45;;;;;;;;;;5023562;28;20182;-86
2021/10/18 05:26:44;;;;;;;6.47;5.72;;;;;;;;;;5020182;28;20202;-85
2021/10/18 05:29:10;;;;;;;6.10;5.50;;;;;;;;;;5021117;28;20174;-85
2021/10/18 05:31:36;;;;;;;5.13;4.60;;;;;;;;;;5023723;28;20675;-86
2021/10/18 05:34:02;;;;;;;6.80;6.03;;;;;;;;;;5020903;28;20183;-86
2021/10/18 05:36:28;;;;;;;6.00;5.33;;;;;;;;;;5022212;28;20464;-85
2021/10/18 05:38:54;;;;;;;7.23;5.47;;;;;;;;;;5024281;28;20946;-85
2021/10/18 05:41:20;;;;;;;6.13;5.30;;;;;;;;;;5020721;28;20417;-86
2021/10/18 05:43:46;;;;;;;6.60;5.87;;;;;;;;;;5022559;28;20441;-86
2021/10/18 05:46:12;;;;;;;6.63;6.00;;;;;;;;;;5021863;28;20450;-85
2021/10/18 05:48:38;;;;;;;6.65;5.75;;;;;;;;;;5018652;28;20504;-86
2021/10/18 05:51:04;;;;;;;6.95;5.93;;;;;;;;;;5017391;28;20179;-85
2021/10/18 05:53:30;;;;;;;9.32;5.60;;;;;;;;;;5016395;28;20198;-85
2021/10/18 05:55:56;;;;;;;6.65;6.00;;;;;;;;;;5022678;28;20198;-85
2021/10/18 05:58:22;;;;;;;6.80;6.10;;;;;;;;;;5024661;28;20400;-86
2021/10/18 06:00:48;;;;;;;7.07;6.38;;;;;;;;;;5018270;28;20194;-85
2021/10/18 06:03:15;;;;;;;7.80;6.27;;;;;;;;;;5023164;28;20182;-85
2021/10/18 06:05:45;;;;;;;7.82;6.97;;;;;;;;;;5019113;28;20476;-85
2021/10/18 06:08:12;;;;;;;7.32;6.53;;;;;;;;;;5015817;28;20178;-84
2021/10/18 06:10:39;;;;;;;6.90;6.18;;;;;;;;;;5027925;28;20182;-85
2021/10/18 06:13:05;;;;;;;9.18;6.40;;;;;;;;;;5018739;28;20267;-85
2021/10/18 06:15:31;;;;;;;6.85;6.20;;;;;;;;;;5023434;28;20206;-85
2021/10/18 06:18:06;;;;;;;6.80;6.10;;;;;;;;;;5017823;28;20262;-86
2021/10/18 06:20:32;;;;;;;7.15;6.45;;;;;;;;;;5016371;28;20174;-85
2021/10/18 06:22:58;;;;;;;9.77;6.83;;;;;;;;;;5034731;28;20214;-85
2021/10/18 06:25:25;;;;;;;8.93;6.70;;;;;;;;;;5017091;28;20438;-85
2021/10/18 06:27:51;;;;;;;9.20;7.05;;;;;;;;;;5021078;28;20438;-86
2021/10/18 06:30:17;;;;;;;9.57;7.07;;;;;;;;;;5020254;28;20266;-85
2021/10/18 06:32:43;;;;;;;8.18;6.85;;;;;;;;;;5024974;28;20182;-86
2021/10/18 06:35:09;;;;;;;9.33;6.33;;;;;;;;;;5020008;28;20210;-86
2021/10/18 06:37:35;;;;;;;7.20;6.50;;;;;;;;;;5018098;28;20436;-86
2021/10/18 06:40:01;;;;;;;9.15;6.25;;;;;;;;;;5019338;28;20178;-86
2021/10/18 06:42:28;;;;;;;8.45;7.40;;;;;;;;;;5015873;28;20592;-85
2021/10/18 06:44:54;;;;;;;9.50;7.07;;;;;;;;;;5022064;28;20285;-85
2021/10/18 06:47:20;;;;;;;10.02;7.82;;;;;;;;;;5023047;28;20212;-86
2021/10/18 06:49:46;;;;;;;8.85;6.93;;;;;;;;;;5018429;28;20205;-86
2021/10/18 06:52:12;;;;;;;7.90;7.10;;;;;;;;;;5021878;28;20186;-85
2021/10/18 06:54:40;;;;;;;8.23;6.93;;;;;;;;;;5020753;28;20234;-85
2021/10/18 06:57:06;;;;;;;9.35;7.80;;;;;;;;;;5014739;28;20277;-86
2021/10/18 06:59:33;;;;;;;9.20;7.55;;;;;;;;;;5020218;28;20232;-84
2021/10/18 07:01:59;;;;;;;7.10;6.50;;;;;;;;;;5020639;28;20182;-85
2021/10/18 07:04:29;;;;;;;9.68;7.70;;;;;;;;;;5021216;28;20183;-85
2021/10/18 07:06:55;;;;;;;10.82;7.57;;;;;;;;;;5018894;28;20438;-86
2021/10/18 07:09:24;;;;;;;9.05;7.75;;;;;;;;;;5020310;28;20190;-86
2021/10/18 07:11:50;;;;;;;20.38;15.73;;;;;;;;;;5018642;28;20624;-87
2021/10/18 07:14:15;;;;;;;9.30;8.38;;;;;;;;;;5019253;28;20191;-86
2021/10/18 07:16:42;;;;;;;8.25;7.00;;;;;;;;;;5029535;28;20233;-87
2021/10/18 07:19:08;;;;;;;8.23;7.43;;;;;;;;;;5019135;28;20711;-87
2021/10/18 07:21:34;;;;;;;8.95;7.80;;;;;;;;;;5021395;28;20190;-86
2021/10/18 07:24:03;;;;;;;11.20;8.40;;;;;;;;;;5031561;28;20258;-87
2021/10/18 07:26:30;;;;;;;9.15;8.18;;;;;;;;;;5030092;28;20179;-87
2021/10/18 07:28:56;;;;;;;14.02;11.77;;;;;;;;;;5018780;28;20183;-86
2021/10/18 07:31:22;;;;;;;11.90;10.30;;;;;;;;;;5019464;28;20191;-86
2021/10/18 07:33:48;;;;;;;15.17;10.37;;;;;;;;;;5019808;28;20205;-87
2021/10/18 07:36:23;;;;;;;18.33;10.32;;;;;;;;;;5013376;28;20534;-86
2021/10/18 07:38:51;;;;;;;13.48;10.65;;;;;;;;;;5021461;28;20189;-87
2021/10/18 07:41:17;;;;;;;15.20;11.52;;;;;;;;;;5024912;28;20166;-87
2021/10/18 07:43:43;;;;;;;15.15;11.20;;;;;;;;;;5019402;28;20270;-86
2021/10/18 07:46:09;;;;;;;12.60;11.30;;;;;;;;;;5013919;28;20214;-86
2021/10/18 07:48:35;;;;;;;13.52;10.98;;;;;;;;;;5020279;28;20178;-87
2021/10/18 07:51:01;;;;;;;18.73;12.02;;;;;;;;;;5020856;28;20187;-87
2021/10/18 07:53:27;;;;;;;16.77;11.30;;;;;;;;;;5030943;28;20183;-86
2021/10/18 07:55:53;;;;;;;13.27;11.27;;;;;;;;;;5017589;28;20217;-87
2021/10/18 07:58:21;;;;;;;21.60;13.32;;;;;;;;;;5035749;28;20197;-88
2021/10/18 08:00:47;;;;;;;15.00;11.70;;;;;;;;;;5022604;28;20200;-89
2021/10/18 08:03:13;;;;;;;13.65;12.25;;;;;;;;;;5014773;28;20194;-87
2021/10/18 08:05:39;;;;;;;14.40;11.83;;;;;;;;;;5024199;28;20238;-88
2021/10/18 08:08:09;;;;;;;12.43;10.27;;;;;;;;;;5019812;28;20509;-88
2021/10/18 08:10:35;;;;;;;14.85;12.77;;;;;;;;;;5027786;28;20187;-87
2021/10/18 08:13:01;;;;;;;16.88;12.65;;;;;;;;;;5017700;28;20193;-87
2021/10/18 08:15:30;;;;;;;19.00;13.37;;;;;;;;;;5017072;28;20203;-88
2021/10/18 08:17:56;;;;;;;21.00;13.10;;;;;;;;;;5020665;28;20456;-87
2021/10/18 08:20:22;;;;;;;15.23;13.32;;;;;;;;;;5015704;28;20182;-88
2021/10/18 08:22:49;;;;;;;19.80;12.95;;;;;;;;;;5014142;28;20214;-88
2021/10/18 08:25:15;;;;;;;15.23;12.18;;;;;;;;;;5013251;28;20275;-87
2021/10/18 08:27:41;;;;;;;14.70;11.93;;;;;;;;;;5024214;28;20197;-88
2021/10/18 08:30:09;;;;;;;13.40;11.13;;;;;;;;;;5020762;28;20228;-88
2021/10/18 08:32:35;;;;;;;15.80;12.10;;;;;;;;;;5024631;28;20202;-88
2021/10/18 08:35:01;;;;;;;14.15;11.43;;;;;;;;;;5036605;28;20202;-88
2021/10/18 08:40:12;;;;;;;20.85;12.10;;;;;;;;;;5016412;28;20394;-88
2021/10/18 08:45:26;;;;;;;12.90;10.90;;;;;;;;;;5025107;28;20229;-88
2021/10/18 08:47:53;;;;;;;14.25;12.63;;;;;;;;;;5020785;28;20201;-88
2021/10/18 08:50:20;;;;;;;13.80;12.32;;;;;;;;;;5022659;28;20199;-89
2021/10/18 08:52:46;;;;;;;15.10;11.88;;;;;;;;;;5020183;28;20194;-89
2021/10/18 08:55:12;;;;;;;16.35;11.40;;;;;;;;;;5014084;28;20234;-89
2021/10/18 08:57:38;;;;;;;17.20;11.90;;;;;;;;;;5016298;28;20216;-87
2021/10/18 09:00:05;;;;;;;14.87;11.23;;;;;;;;;;5022234;28;20501;-89
2021/10/18 09:02:36;;;;;;;11.80;10.20;;;;;;;;;;5020939;28;20416;-88
2021/10/18 09:05:04;;;;;;;15.13;11.88;;;;;;;;;;5024755;28;20213;-89
2021/10/18 09:07:35;;;;;;;15.30;11.82;;;;;;;;;;5021462;28;20293;-89
2021/10/18 09:10:01;;;;;;;13.40;11.13;;;;;;;;;;5021973;28;20194;-89
2021/10/18 09:12:31;;;;;;;16.08;11.95;;;;;;;;;;5019510;28;20423;-88
2021/10/18 09:15:17;;;;;;;15.48;12.57;;;;;;;;;;5042586;28;20632;-89
2021/10/18 09:17:43;;;;;;;14.43;11.15;;;;;;;;;;5017513;28;20186;-89
2021/10/18 09:20:22;;;;;;;12.43;11.13;;;;;;;;;;5017063;28;20178;-90
2021/10/18 09:22:49;;;;;;;15.90;12.05;;;;;;;;;;5019322;28;20182;-90
2021/10/18 09:25:34;;;;;;;15.18;10.10;;;;;;;;;;5021907;28;20310;-90
2021/10/18 09:28:26;;;;;;;13.25;10.75;;;;;;;;;;5011068;28;20270;-89
2021/10/18 09:30:53;;;;;;;12.73;10.77;;;;;;;;;;5008234;28;20664;-89
2021/10/18 09:33:22;;;;;;;14.93;10.85;;;;;;;;;;5019921;28;20179;-89
2021/10/18 09:35:49;;;;;;;11.98;10.10;;;;;;;;;;5022306;28;20210;-89
2021/10/18 09:38:17;;;;;;;13.55;10.50;;;;;;;;;;5020935;28;20201;-87
2021/10/18 09:40:45;;;;;;;10.48;8.35;;;;;;;;;;5023007;28;20207;-86
2021/10/18 09:43:15;;;;;;;10.35;8.25;;;;;;;;;;5021755;28;20197;-89
2021/10/18 09:45:56;;;;;;;11.20;8.40;;;;;;;;;;5020906;28;20229;-89
2021/10/18 10:53:26;;;;;;;8.50;7.50;;;;;;;;;;5022800;28;20187;-85
2021/10/18 10:55:54;;;;;;;7.63;6.82;;;;;;;;;;5023227;28;20250;-89
2021/10/18 10:58:32;;;;;;;7.38;6.78;;;;;;;;;;5017729;28;20191;-88
2021/10/18 11:00:59;;;;;;;6.65;6.03;;;;;;;;;;5019302;28;20666;-87
2021/10/18 11:03:31;;;;;;;8.30;6.95;;;;;;;;;;5018781;28;20691;-89
2021/10/18 11:05:57;;;;;;;6.80;6.10;;;;;;;;;;5018752;28;20188;-87
2021/10/18 11:08:31;;;;;;;7.93;6.00;;;;;;;;;;5032992;28;20236;-86
2021/10/18 11:11:05;;;;;;;7.15;6.13;;;;;;;;;;5014492;28;20205;-87
2021/10/18 11:13:32;;;;;;;7.97;7.20;;;;;;;;;;5015537;28;20190;-86
2021/10/18 11:16:01;;;;;;;8.05;6.93;;;;;;;;;;5023552;28;20238;-81
2021/10/18 11:18:27;;;;;;;9.40;8.15;;;;;;;;;;5022877;28;20242;-85
2021/10/18 11:20:53;;;;;;;7.13;6.47;;;;;;;;;;5027390;28;20214;-87
2021/10/18 11:23:19;;;;;;;13.25;6.45;;;;;;;;;;5018490;28;20463;-88
2021/10/18 11:25:45;;;;;;;7.93;6.77;;;;;;;;;;5016121;28;20194;-86
2021/10/18 11:28:12;;;;;;;9.13;6.72;;;;;;;;;;5021778;28;20437;-86
2021/10/18 11:30:39;;;;;;;7.95;6.80;;;;;;;;;;5022994;28;20408;-87
2021/10/18 11:33:10;;;;;;;7.97;6.57;;;;;;;;;;5022145;28;20190;-89
2021/10/18 11:35:36;;;;;;;6.25;5.70;;;;;;;;;;5018058;28;20308;-89
2021/10/18 11:38:05;;;;;;;8.52;7.63;;;;;;;;;;5033797;28;20182;-89
2021/10/18 11:40:36;;;;;;;7.22;6.53;;;;;;;;;;5022380;28;20174;-90
2021/10/18 11:43:06;;;;;;;7.00;6.40;;;;;;;;;;5021268;28;20262;-87
2021/10/18 11:45:33;;;;;;;8.00;5.82;;;;;;;;;;5022440;28;20218;-88
2021/10/18 11:48:04;;;;;;;6.65;6.05;;;;;;;;;;5023218;28;20196;-88
2021/10/18 11:50:31;;;;;;;7.15;5.97;;;;;;;;;;5027636;28;20190;-88
2021/10/18 11:53:02;;;;;;;7.28;6.53;;;;;;;;;;5021457;28;20185;-86
2021/10/18 11:55:28;;;;;;;6.90;6.30;;;;;;;;;;5018459;28;20210;-87
2021/10/18 11:57:56;;;;;;;8.40;7.50;;;;;;;;;;5016869;28;20190;-90
2021/10/18 12:00:29;;;;;;;6.55;5.95;;;;;;;;;;5021629;28;20456;-90
2021/10/18 12:02:59;;;;;;;7.35;6.25;;;;;;;;;;5034901;28;20186;-89
2021/10/18 12:05:28;;;;;;;6.82;6.22;;;;;;;;;;5027315;28;20255;-85
2021/10/18 12:07:55;;;;;;;7.22;6.53;;;;;;;;;;5019266;28;20213;-88
2021/10/18 12:10:22;;;;;;;6.82;6.03;;;;;;;;;;5017092;28;20473;-87
2021/10/18 12:13:04;;;;;;;6.95;6.22;;;;;;;;;;5016884;28;20187;-89
2021/10/18 12:15:30;;;;;;;10.55;6.25;;;;;;;;;;5019235;28;20229;-89
2021/10/18 12:17:57;;;;;;;7.30;6.47;;;;;;;;;;5022158;28;20242;-85
2021/10/18 12:20:23;;;;;;;9.55;7.93;;;;;;;;;;5023516;28;20387;-86
2021/10/18 12:23:05;;;;;;;6.93;6.37;;;;;;;;;;5020756;28;20343;-90
2021/10/18 12:25:33;;;;;;;8.05;7.13;;;;;;;;;;5024882;28;20447;-87
2021/10/18 12:28:00;;;;;;;9.43;8.50;;;;;;;;;;5021708;28;20194;-87
2021/10/18 12:30:40;;;;;;;7.90;7.20;;;;;;;;;;5025318;28;20178;-85
2021/10/18 12:33:15;;;;;;;6.82;6.22;;;;;;;;;;5022938;28;20187;-87
2021/10/18 12:35:42;;;;;;;8.57;5.75;;;;;;;;;;5020660;28;20200;-86
2021/10/18 12:38:12;;;;;;;6.10;5.50;;;;;;;;;;5022405;28;20239;-87
2021/10/18 12:40:38;;;;;;;7.55;6.40;;;;;;;;;;5018058;28;20182;-88
2021/10/18 12:43:04;;;;;;;7.15;6.45;;;;;;;;;;5023864;28;20223;-87
2021/10/18 12:45:34;;;;;;;6.82;5.57;;;;;;;;;;5024663;28;20225;-87
2021/10/18 12:48:01;;;;;;;6.47;5.90;;;;;;;;;;5019676;28;20229;-87
2021/10/18 12:50:36;;;;;;;6.65;5.97;;;;;;;;;;5015252;28;20202;-86
2021/10/18 12:53:12;;;;;;;6.20;5.25;;;;;;;;;;5030882;28;20190;-87
2021/10/18 12:55:39;;;;;;;5.30;4.80;;;;;;;;;;5031006;28;20206;-85
2021/10/18 12:58:18;;;;;;;6.10;4.80;;;;;;;;;;5023994;28;20206;-88
2021/10/18 13:00:44;;;;;;;6.72;6.00;;;;;;;;;;5034227;28;20281;-88
2021/10/18 13:03:09;;;;;;;5.70;5.20;;;;;;;;;;5025432;28;20178;-90
2021/10/18 13:05:47;;;;;;;6.23;5.63;;;;;;;;;;5019783;28;20433;-88
2021/10/18 13:08:17;;;;;;;6.50;5.85;;;;;;;;;;5026855;28;20429;-86
2021/10/18 13:10:43;;;;;;;6.32;5.78;;;;;;;;;;5019590;28;20193;-87
2021/10/18 13:13:11;;;;;;;7.28;5.57;;;;;;;;;;5022348;28;20238;-86
2021/10/18 13:15:38;;;;;;;6.22;4.75;;;;;;;;;;5017310;28;20199;-85
2021/10/18 13:18:04;;;;;;;5.30;4.82;;;;;;;;;;5016314;28;20193;-86
2021/10/18 13:20:30;;;;;;;5.90;5.40;;;;;;;;;;5010795;28;20203;-88
2021/10/18 13:22:57;;;;;;;6.27;5.17;;;;;;;;;;5019089;28;20202;-87
2021/10/18 13:25:24;;;;;;;5.75;5.25;;;;;;;;;;5013638;28;20444;-85
2021/10/18 13:27:50;;;;;;;5.63;5.03;;;;;;;;;;5013113;28;20189;-86
2021/10/18 13:30:16;;;;;;;7.32;5.50;;;;;;;;;;5009625;28;20508;-85
2021/10/18 13:32:43;;;;;;;5.10;4.65;;;;;;;;;;5016925;28;20238;-82
2021/10/18 13:35:10;;;;;;;5.35;4.40;;;;;;;;;;5024014;28;20458;-86
2021/10/18 13:37:36;;;;;;;5.00;4.50;;;;;;;;;;5023631;28;20199;-83
2021/10/18 13:40:03;;;;;;;5.80;5.20;;;;;;;;;;5023561;28;20241;-84
2021/10/18 13:42:29;;;;;;;7.68;5.07;;;;;;;;;;5023662;28;20193;-84
2021/10/18 13:44:55;;;;;;;4.82;4.43;;;;;;;;;;5018319;28;20226;-85
2021/10/18 13:47:21;;;;;;;4.55;4.15;;;;;;;;;;5020490;28;20192;-84
2021/10/18 13:49:47;;;;;;;4.57;4.10;;;;;;;;;;5022857;28;20186;-84
2021/10/18 13:52:14;;;;;;;5.17;4.70;;;;;;;;;;5018302;28;20180;-84
2021/10/18 13:54:40;;;;;;;4.18;3.80;;;;;;;;;;5020221;28;20430;-85
2021/10/18 13:57:06;;;;;;;4.03;3.73;;;;;;;;;;5023410;28;20230;-82
2021/10/18 13:59:35;;;;;;;3.42;3.13;;;;;;;;;;5024311;28;20493;-82
2021/10/18 14:02:01;;;;;;;3.95;3.53;;;;;;;;;;5015988;28;20202;-83
2021/10/18 14:04:27;;;;;;;4.22;3.83;;;;;;;;;;5022890;28;20242;-86
2021/10/18 14:06:53;;;;;;;4.87;3.93;;;;;;;;;;5021596;28;20576;-86
2021/10/18 14:09:19;;;;;;;3.30;3.00;;;;;;;;;;5020590;28;20455;-88
2021/10/18 14:11:45;;;;;;;3.30;3.00;;;;;;;;;;5019407;28;20430;-83
2021/10/18 14:14:11;;;;;;;3.10;2.80;;;;;;;;;;5013639;28;20190;-87
2021/10/18 14:16:38;;;;;;;3.35;3.05;;;;;;;;;;5014230;28;20477;-85
2021/10/18 14:19:04;;;;;;;3.40;3.05;;;;;;;;;;5017643;28;20186;-83
2021/10/18 14:21:31;;;;;;;3.63;3.33;;;;;;;;;;5016394;28;20187;-87
2021/10/18 14:23:57;;;;;;;3.10;2.90;;;;;;;;;;5013364;28;20205;-85
2021/10/18 14:26:23;;;;;;;3.63;2.67;;;;;;;;;;5020421;28;20234;-86
2021/10/18 14:28:50;;;;;;;3.70;3.25;;;;;;;;;;5019877;28;20249;-81
2021/10/18 14:31:16;;;;;;;2.95;2.75;;;;;;;;;;5014716;28;20679;-85
2021/10/18 14:33:42;;;;;;;3.30;3.00;;;;;;;;;;5024485;28;20193;-83
2021/10/18 14:36:09;;;;;;;3.70;3.00;;;;;;;;;;5020165;28;20356;-84
2021/10/18 14:38:36;;;;;;;3.17;2.85;;;;;;;;;;5021257;28;20434;-81
2021/10/18 14:41:02;;;;;;;2.75;2.55;;;;;;;;;;5020932;28;20182;-81
2021/10/18 14:43:28;;;;;;;3.10;2.43;;;;;;;;;;5029202;28;20190;-84
2021/10/18 14:45:54;;;;;;;2.60;2.20;;;;;;;;;;5022262;28;20468;-84
2021/10/18 14:48:20;;;;;;;2.80;2.50;;;;;;;;;;5016414;28;20445;-80
2021/10/18 14:50:47;;;;;;;2.53;2.33;;;;;;;;;;5017178;28;20561;-83
2021/10/18 14:53:13;;;;;;;2.90;2.58;;;;;;;;;;5019463;28;20630;-84
2021/10/18 14:55:40;;;;;;;2.85;2.63;;;;;;;;;;5021713;28;20329;-82
2021/10/18 14:58:07;;;;;;;2.70;2.50;;;;;;;;;;5013792;28;20270;-79
2021/10/18 15:00:33;;;;;;;2.80;2.60;;;;;;;;;;5017577;28;20210;-79
2021/10/18 15:03:00;;;;;;;2.63;2.42;;;;;;;;;;5022408;28;20182;-81
2021/10/18 15:05:25;;;;;;;3.22;2.80;;;;;;;;;;5016850;28;20195;-83
2021/10/18 15:07:52;;;;;;;3.67;2.57;;;;;;;;;;5019925;28;20208;-84
2021/10/18 15:10:19;;;;;;;3.58;2.35;;;;;;;;;;5020132;28;20485;-83
2021/10/18 15:12:45;;;;;;;3.38;2.78;;;;;;;;;;5019832;28;20182;-82
2021/10/18 15:15:11;;;;;;;4.28;2.70;;;;;;;;;;5018866;28;20217;-81
2021/10/18 15:17:37;;;;;;;3.40;2.38;;;;;;;;;;5014660;28;20182;-83
2021/10/18 15:20:03;;;;;;;2.57;2.37;;;;;;;;;;5018068;28;20178;-85
2021/10/18 15:22:29;;;;;;;3.08;2.78;;;;;;;;;;5016926;28;20513;-82
2021/10/18 15:24:55;;;;;;;6.33;3.30;;;;;;;;;;5021277;28;20186;-84
2021/10/18 15:27:22;;;;;;;4.93;2.60;;;;;;;;;;5022133;28;20448;-80
2021/10/18 15:29:51;;;;;;;2.60;2.40;;;;;;;;;;5021979;28;20481;-83
2021/10/18 15:32:18;;;;;;;3.20;2.90;;;;;;;;;;5023908;28;20245;-82
2021/10/18 15:34:44;;;;;;;3.15;2.80;;;;;;;;;;5019309;28;20186;-83
2021/10/18 15:37:10;;;;;;;2.40;2.20;;;;;;;;;;5016699;28;20202;-81
2021/10/18 15:39:36;;;;;;;2.50;2.30;;;;;;;;;;5019033;28;20175;-83
2021/10/18 15:42:06;;;;;;;7.32;3.53;;;;;;;;;;5022561;28;20179;-81
2021/10/18 15:44:33;;;;;;;3.90;2.60;;;;;;;;;;5015529;28;20218;-82
2021/10/18 15:46:59;;;;;;;3.10;2.80;;;;;;;;;;5026426;28;20183;-82
2021/10/18 15:49:25;;;;;;;2.80;2.60;;;;;;;;;;5028099;28;20629;-81